Jewell, Oregon
Current Conditions -  °F | °C
As of 1:55 AM on Tuesday 21 Oct 2014 (Local Time) from KAST Reporting Station
Scattered Clouds Scattered Clouds  
Wind Chill: 57°   Ceiling: Unl
Heat Index: 57°   Visibility: 10mi
Dew Point: 53°   Wind: 9mph
Humidity: 87%   Direction: 190°S
Pressure: 29.81"   Gusts: 20mph
Location:  45.8905°N, 123.667°W
Report Text: KAST 210855Z AUTO 19008G17KT 10SM FEW017 FEW024 SCT031 14/12 A2981 RMK AO2 RAB16E38 SLP094 P0002 60017 T01390117 53005
Loading
Personal Weather Stations






























Interactive Weather Map
Tropical Storm Tracking
New forecast layout! Learn more

10-Day Weather Forecast

Advertisements
Track Severe Weather on mobile